< < Back
Terminal Aerodrome Forecast


Current Version              Previous Versions:   1  2  3  4  5  6  7  8  9  

Terminal Aerodrome Forecast

451
FTUS42 KJAX 250536
TAFSSI
TAF
KSSI 250536Z 2506/2606 14006KT P6SM SCT200
     FM251200 17011G18KT P6SM SCT015 BKN150
     FM251500 20013G21KT P6SM SCT025 SCT150 BKN250
     FM251700 23015G24KT P6SM VCTS BKN030CB BKN120 OVC250 PROB30
      2518/2522 VRB25G35KT 3SM +TSRA BKN025CB OVC150=



Latest METAR

818
SAUS70 KWBC 251400 RRG
MTRSSI
METAR KSSI 251353Z AUTO 17007KT 10SM BKN047 23/19 A2990 RMK AO2 SLP125
T02280194


USA.gov is the U.S. government's official web portal to all federal, state and local government web resources and services.